Burton, Texas
Current Conditions -  °F | °C
As of 3:55 AM on Friday 28 Nov 2014 (Local Time) from K11R Reporting Station
Haze Haze  
Wind Chill:   Ceiling: 700
Heat Index:   Visibility: 1.5mi
Dew Point:   Wind: 0mph
Humidity: 80%   Direction: NA
Pressure: 30.36"   Gusts: NA
Location:  30.18°N, 96.6°W
Report Text: K11R 280955Z AUTO 00000KT 1 1/2SM HZ VV007 06/03 A3036 RMK AO2 T00600027
Loading
Personal Weather Stations






























Interactive Weather Map New forecast layout! Learn more

10-Day Weather Forecast

Advertisements
Track Severe Weather on mobile